Flight Track Log - Related Links

Times and Time Zones

All times are in EDT time to prevent confusion due to time zone crossing. See the JBU972 flight status page for this flight to view local times or setup timezone preferences in your user account.

Time Position Orientation Groundspeed Altitude Reporting Facility
EDT Latitude Longitude Course Direction KTS MPH feet Rate Location/Type
Tue 07:37:22 AM 26.0719 -80.1783 288° West 146 168 900  Level Miami Center
Tue 07:38:47 AM 26.0953 -80.2575 288° West 264 304 3,600 2,469 Climbing Miami Center
Tue 07:40:51 AM 26.1667 -80.1414 56° Northeast 256 295 9,500 2,623 Climbing Miami Center
Tue 07:41:50 AM 26.1831 -80.0608 77° East 261 300 11,600 1,613 Climbing Miami Center
Tue 07:42:50 AM 26.2022 -79.9572 78° East 295 339 12,700 1,700 Climbing Miami Center
Tue 07:43:50 AM 26.2272 -79.8492 76° East 333 383 15,000 2,150 Climbing Miami Center
Tue 07:44:50 AM 26.2506 -79.7339 77° East 356 410 17,000 1,900 Climbing Miami Center
Tue 07:45:50 AM 26.2817 -79.6303 71° East 376 433 18,800 1,750 Climbing Miami Center
Tue 07:46:50 AM 26.3569 -79.5231 52° Northeast 382 440 20,500 1,785 Climbing Miami Center
Tue 07:47:51 AM 26.4475 -79.4742 26° Northeast 396 456 22,400 1,650 Climbing Miami Center
Tue 07:48:50 AM 26.5636 -79.4094 26° Northeast 406 467 23,800 1,412 Climbing Miami Center
Tue 07:49:50 AM 26.6542 -79.3625 25° Northeast 406 467 25,200 1,350 Climbing Miami Center
Tue 07:50:50 AM 26.7764 -79.3000 25° Northeast 406 467 26,500 1,200 Climbing Miami Center
Tue 07:51:50 AM 26.8797 -79.2392 28° Northeast 411 473 27,600 1,150 Climbing Miami Center
Tue 07:52:50 AM 26.9914 -79.1831 24° Northeast 416 479 28,800 1,100 Climbing Miami Center
Tue 07:53:50 AM 27.1011 -79.1200 27° Northeast 423 487 29,800 1,100 Climbing Miami Center
Tue 07:54:50 AM 27.2106 -79.0592 26° Northeast 428 493 31,000 1,388 Climbing Miami Center
Tue 07:55:51 AM 27.3075 -79.0072 25° Northeast 427 491 32,600 1,450 Climbing Miami Center
Tue 07:56:50 AM 27.4167 -78.9553 23° Northeast 422 486 33,900 1,412 Climbing Miami Center
Tue 07:57:50 AM 27.5403 -78.9294 10° North 416 479 35,400 1,250 Climbing Miami Center
Tue 07:58:50 AM 27.6533 -78.9150 North 410 472 36,400 800 Climbing Miami Center
Tue 07:59:50 AM 27.7558 -78.9006 North 409 471 37,000 300 Climbing Miami Center
Tue 08:00:50 AM 27.8667 -78.8861 North 409 471 37,000  Level Miami Center
Tue 08:01:50 AM 27.9900 -78.8694 North 409 471 37,000 -50 Level Miami Center
Tue 08:02:50 AM 28.1008 -78.8550 North 409 471 36,900 -50 Descending Miami Center
Tue 08:03:51 AM 28.2119 -78.8381 North 409 471 36,900 50 Level Miami Center
Tue 08:04:50 AM 28.3269 -78.8211 North 408 470 37,000 50 Climbing Miami Center
Tue 08:05:50 AM 28.4397 -78.8044 North 408 470 37,000  Level Miami Center
Tue 08:06:50 AM 28.5547 -78.7897 North 408 470 37,000  Level Miami Center
Tue 08:07:50 AM 28.6697 -78.7728 North 408 470 37,000  Level Miami Center
Tue 08:08:50 AM 28.7828 -78.7581 North 408 470 37,000 -50 Level Miami Center
Tue 08:09:50 AM 28.8914 -78.7433 North 402 463 36,900  Descending Miami Center
Tue 08:10:50 AM 29.0044 -78.7239 North 410 472 37,000 50 Climbing Miami Center
Tue 08:11:50 AM 29.1150 -78.7069 North 404 465 37,000  Level Miami Center
Tue 08:12:50 AM 29.2406 -78.6969 North 411 473 37,000  Level Miami Center
Tue 08:13:50 AM 29.3469 -78.6797 North 401 461 37,000  Level Miami Center
Tue 08:14:50 AM 29.4600 -78.6603 North 412 474 37,000  Level Miami Center
Tue 08:15:50 AM 29.5728 -78.6478 North 405 466 37,000  Level Miami Center
Tue 08:17:05 AM 29.7108 -78.6222 North 418 481 37,000  Level Jacksonville Center
Tue 08:18:05 AM 29.8272 -78.6075 North 397 457 37,000  Level Jacksonville Center
Tue 08:19:05 AM 29.9350 -78.5883 North 410 472 37,000  Level Jacksonville Center
Tue 08:20:05 AM 30.0556 -78.5758 North 410 472 37,000  Level Jacksonville Center
Tue 08:21:05 AM 30.1569 -78.5494 13° North 400 460 37,000  Level Jacksonville Center
Tue 08:22:05 AM 30.2656 -78.5447 North 410 472 37,000  Level Jacksonville Center
Tue 08:23:05 AM 30.3756 -78.5275 North 402 463 37,000  Level Jacksonville Center
Tue 08:24:05 AM 30.4917 -78.5103 North 410 472 37,000  Level Jacksonville Center
Tue 08:25:05 AM 30.6061 -78.4931 North 408 470 37,000  Level Jacksonville Center
Tue 08:26:05 AM 30.7347 -78.4700 North 419 482 37,000  Level Jacksonville Center
Tue 08:27:05 AM 30.8531 -78.4525 North 426 490 37,000  Level Jacksonville Center
Tue 08:28:05 AM 30.9628 -78.4328 North 419 482 37,000  Level Jacksonville Center
Tue 08:29:05 AM 31.0792 -78.4175 North 414 476 37,000  Level Jacksonville Center
Tue 08:30:05 AM 31.1933 -78.4000 North 407 468 37,000  Level Jacksonville Center
Tue 08:31:05 AM 31.3056 -78.3800 North 407 468 37,000  Level Jacksonville Center
Tue 08:32:05 AM 31.4236 -78.3572 North 407 468 37,000  Level Jacksonville Center
Tue 08:33:05 AM 31.5317 -78.3422 North 407 468 37,000  Level Jacksonville Center
Tue 08:34:05 AM 31.6478 -78.3244 North 407 468 37,000  Level Jacksonville Center
Tue 08:35:05 AM 31.7600 -78.3042 North 407 468 37,000  Level Jacksonville Center
Tue 08:36:05 AM 31.8719 -78.2839 North 407 468 37,000  Level Jacksonville Center
Tue 08:37:05 AM 31.9861 -78.2661 North 407 468 37,000  Level Jacksonville Center
Tue 08:38:05 AM 32.0981 -78.2481 North 407 468 37,000  Level Jacksonville Center
Tue 08:39:05 AM 32.2119 -78.2203 12° North 413 475 37,000  Level Jacksonville Center
Tue 08:40:05 AM 32.3258 -78.1997 North 413 475 37,000  Level Jacksonville Center
Tue 08:41:05 AM 32.4403 -78.1864 North 413 475 37,000  Level Jacksonville Center
Tue 08:42:05 AM 32.5564 -78.1706 North 413 475 37,000  Level Jacksonville Center
Tue 08:43:05 AM 32.6706 -78.1497 North 413 475 37,000  Level Jacksonville Center
Tue 08:44:05 AM 32.7867 -78.1336 North 413 475 37,000  Level Jacksonville Center
Tue 08:45:05 AM 32.9008 -78.1128 North 413 475 37,000  Level Jacksonville Center
Tue 08:46:05 AM 33.0169 -78.0917 North 413 475 37,000  Level Jacksonville Center
Tue 08:47:05 AM 33.1308 -78.0733 North 418 481 37,000  Level Jacksonville Center
Tue 08:48:05 AM 33.2450 -78.0572 North 418 481 37,000 -34 Level Jacksonville Center
Tue 08:50:03 AM 33.4525 -78.0233 North 422 486 36,900  Descending Washington Center
Tue 08:51:03 AM 33.5633 -78.0064 North 417 480 37,000 51 Climbing Washington Center
Tue 08:52:01 AM 33.6806 -77.9875 North 411 473 37,000  Level Washington Center
Tue 08:53:02 AM 33.7914 -77.9706 North 411 473 37,000  Level Washington Center
Tue 08:54:03 AM 33.9233 -77.9469 North 411 473 37,000  Level Washington Center
Tue 08:55:01 AM 34.0386 -77.9250 North 418 481 37,000  Level Washington Center
Tue 08:56:01 AM 34.1494 -77.9081 North 418 481 37,000  Level Washington Center
Tue 08:57:03 AM 34.2644 -77.8886 North 412 474 37,000  Level Washington Center
Tue 08:58:03 AM 34.3794 -77.8744 North 412 474 37,000  Level Washington Center
Tue 08:59:01 AM 34.4903 -77.8622 North 407 468 37,000  Level Washington Center
Tue 09:00:01 AM 34.6033 -77.8503 North 407 468 37,000 -50 Level Washington Center
Tue 09:01:02 AM 34.7142 -77.8383 North 407 468 36,900  Descending Washington Center
Tue 09:02:02 AM 34.8250 -77.8261 North 407 468 37,000 50 Climbing Washington Center
Tue 09:03:03 AM 34.9378 -77.8139 North 407 468 37,000  Level Washington Center
Tue 09:04:03 AM 35.0506 -77.8019 North 407 468 37,000  Level Washington Center
Tue 09:05:01 AM 35.1614 -77.7897 North 402 463 37,000  Level Washington Center
Tue 09:06:01 AM 35.2744 -77.7750 North 407 468 37,000  Level Washington Center
Tue 09:07:03 AM 35.3853 -77.7653 North 407 468 37,000  Level Washington Center
Tue 09:08:03 AM 35.4961 -77.7528 North 407 468 37,000  Level Washington Center
Tue 09:09:02 AM 35.6006 -77.7431 North 407 468 37,000  Level Washington Center
Tue 09:10:02 AM 35.7114 -77.7331 North 407 468 37,000  Level Washington Center
Tue 09:11:03 AM 35.8242 -77.7208 North 407 468 37,000  Level Washington Center
Tue 09:12:02 AM 35.9369 -77.7083 North 407 468 37,000  Level Washington Center
Tue 09:13:02 AM 36.0525 -77.6731 14° North 412 474 37,000  Level Washington Center
Tue 09:14:03 AM 36.1617 -77.6269 19° North 412 474 37,000  Level Washington Center
Tue 09:15:01 AM 36.2711 -77.5808 19° North 417 480 37,000  Level Washington Center
Tue 09:16:01 AM 36.3803 -77.5319 20° North 417 480 37,000  Level Washington Center
Tue 09:17:02 AM 36.4981 -77.4806 19° North 409 471 37,000  Level Washington Center
Tue 09:18:02 AM 36.6072 -77.4342 19° North 409 471 37,000  Level Washington Center
Tue 09:19:03 AM 36.7164 -77.3850 20° North 409 471 37,000  Level Washington Center
Tue 09:20:03 AM 36.8256 -77.3381 19° North 409 471 37,000  Level Washington Center
Tue 09:21:01 AM 36.9347 -77.2911 19° North 409 471 37,000  Level Washington Center
Tue 09:22:02 AM 37.0417 -77.2467 18° North 409 471 37,000  Level Washington Center
Tue 09:23:03 AM 37.1506 -77.2178 12° North 404 465 37,000  Level Washington Center
Tue 09:24:01 AM 37.2617 -77.1889 12° North 397 457 37,000  Level Washington Center
Tue 09:25:02 AM 37.3581 -77.1492 18° North 401 461 37,000  Level Washington Center
Tue 09:26:02 AM 37.4858 -77.1097 14° North 415 478 37,000  Level Washington Center
Tue 09:27:02 AM 37.5781 -77.0722 18° North 426 490 37,000  Level Washington Center
Tue 09:28:02 AM 37.6836 -76.9589 40° Northeast 426 490 37,000  Level Washington Center
Tue 09:29:03 AM 37.7808 -76.8531 41° Northeast 443 510 37,000  Level Washington Center
Tue 09:30:03 AM 37.8717 -76.7467 43° Northeast 443 510 37,000  Level Washington Center
Tue 09:31:01 AM 37.9683 -76.6428 40° Northeast 448 516 37,000 -151 Level Washington Center
Tue 09:32:02 AM 38.0839 -76.5519 32° Northeast 448 516 36,700 -595 Descending Washington Center
Tue 09:33:02 AM 38.1928 -76.4714 30° Northeast 443 510 35,800 -958 Descending Washington Center
Tue 09:34:01 AM 38.3019 -76.3856 32° Northeast 448 516 34,800 -958 Descending Washington Center
Tue 09:35:01 AM 38.4067 -76.2886 36° Northeast 460 529 33,900 -893 Descending Washington Center
Tue 09:36:02 AM 38.5117 -76.1939 35° Northeast 466 536 33,000 -934 Descending Washington Center
Tue 09:37:03 AM 38.6078 -76.1072 35° Northeast 471 542 32,000 -1,008 Descending Washington Center
Tue 09:38:01 AM 38.7125 -76.0094 36° Northeast 471 542 31,000 -1,008 Descending Washington Center
Tue 09:39:02 AM 38.8192 -75.9061 37° Northeast 471 542 30,000 -1,289 Descending Washington Center
Tue 09:40:02 AM 38.9256 -75.8103 35° Northeast 471 542 28,400 -1,587 Descending Washington Center
Tue 09:41:03 AM 39.0258 -75.7172 36° Northeast 465 535 26,800 -1,438 Descending Washington Center
Tue 09:42:03 AM 39.1239 -75.6211 37° Northeast 453 521 25,500 -1,300 Descending Washington Center
Tue 09:43:03 AM 39.2197 -75.5328 36° Northeast 439 505 24,200 -1,424 Descending Washington Center
Tue 09:44:01 AM 39.3133 -75.4442 36° Northeast 423 487 22,700 -1,475 Descending Washington Center
Tue 09:45:01 AM 39.4050 -75.3686 32° Northeast 408 470 21,300 -1,339 Descending Washington Center
Tue 09:46:02 AM 39.4903 -75.2903 35° Northeast 385 443 20,000 -1,289 Descending Washington Center
Tue 09:47:02 AM 39.5733 -75.2119 36° Northeast 378 435 18,700 -1,339 Descending Washington Center
Tue 09:48:03 AM 39.6625 -75.1278 36° Northeast 372 428 17,300 -1,400 Descending Washington Center
Tue 09:49:02 AM 39.7478 -75.0544 33° Northeast 367 422 15,900 -1,261 Descending Washington Center
Tue 09:50:02 AM 39.8203 -74.9944 32° Northeast 355 409 14,800 -1,208 Descending Washington Center
Tue 09:51:36 AM 39.9500 -74.8667 37° Northeast 340 391 12,800 -1,247 Descending New York TRACON
Tue 09:52:36 AM 40.0167 -74.7667 49° Northeast 339 390 11,600 -1,150 Descending New York TRACON
Tue 09:53:36 AM 40.0667 -74.6833 52° Northeast 321 369 10,500 -842 Descending New York TRACON
Tue 09:54:30 AM 40.1333 -74.6167 37° Northeast 302 348 10,000 -211 Descending New York TRACON
Tue 09:55:30 AM 40.1833 -74.5333 52° Northeast 307 353 10,100 50 Climbing New York TRACON
Tue 09:56:30 AM 40.2333 -74.4500 52° Northeast 304 350 10,100 -368 Level New York TRACON
Tue 09:57:24 AM 40.3000 -74.3833 37° Northeast 303 349 9,400 -1,105 Descending New York TRACON
Tue 09:58:24 AM 40.3500 -74.3000 52° Northeast 290 334 8,000 -1,150 Descending New York TRACON
Tue 09:59:24 AM 40.4000 -74.2333 45° Northeast 279 321 7,100 -450 Descending New York TRACON
Tue 10:00:24 AM 40.4667 -74.1667 37° Northeast 273 314 7,100 -500 Level New York TRACON
Tue 10:01:24 AM 40.5000 -74.1000 57° Northeast 222 255 6,100 -1,100 Descending New York TRACON
Tue 10:02:24 AM 40.5500 -74.0667 27° Northeast 215 247 4,900 -1,158 Descending New York TRACON
Tue 10:03:18 AM 40.6000 -74.0167 37° Northeast 213 245 3,900 -1,100 Descending New York TRACON
Tue 10:04:24 AM 40.6500 -73.9833 27° Northeast 202 232 2,700 -1,050 Descending New York TRACON
Tue 10:05:18 AM 40.7000 -73.9500 27° Northeast 182 209 1,800 -895 Descending New York TRACON
Tue 10:06:18 AM 40.7333 -73.9167 37° Northeast 136 157 1,000 -700 Descending New York TRACON
Tue 10:07:18 AM 40.7500 -73.9000 37° Northeast 130 150 400 -600 Descending New York TRACON

Login

Don't have an account? Register now (free) for customized features, flight alerts, and more!